Time;durP1;ratioP1;P1;durP2;ratioP2;P2;SDS_P1;SDS_P2;PMS_P1;PMS_P2;Temp;Humidity;BMP_temperature;BMP_pressure;BME280_temperature;BME280_humidity;BME280_pressure;Samples;Min_cycle;Max_cycle;Signal;HPM_P1;HPM_P2
2022/03/11 00:00:08;;;;;;;12.43;9.83;;;;;;;0.87;100.00;96729.53;5028898;28;105227;-64
2022/03/11 00:02:45;;;;;;;11.57;8.93;;;;;;;0.62;100.00;96732.63;5029405;27;102533;-64
2022/03/11 00:05:13;;;;;;;12.23;8.83;;;;;;;0.52;100.00;96735.53;5028706;28;101837;-64
2022/03/11 00:07:42;;;;;;;13.17;9.50;;;;;;;0.44;100.00;96730.34;5028762;28;105587;-64
2022/03/11 00:10:11;;;;;;;13.17;9.03;;;;;;;0.52;100.00;96726.84;5028015;28;105499;-64
2022/03/11 00:12:39;;;;;;;11.63;8.93;;;;;;;0.48;100.00;96722.97;5028698;28;102389;-64
2022/03/11 00:15:08;;;;;;;11.63;8.53;;;;;;;0.43;100.00;96722.69;5028688;28;105203;-64
2022/03/11 00:17:35;;;;;;;13.60;8.23;;;;;;;0.33;100.00;96719.53;5031138;28;105786;-64
2022/03/11 00:20:06;;;;;;;11.03;7.93;;;;;;;0.45;100.00;96715.50;5028609;28;105422;-64
2022/03/11 00:22:33;;;;;;;11.50;8.23;;;;;;;0.54;100.00;96709.16;5028148;28;105521;-64
2022/03/11 00:25:00;;;;;;;10.03;7.90;;;;;;;0.34;100.00;96716.72;5028516;28;101872;-64
2022/03/11 00:27:28;;;;;;;12.27;8.13;;;;;;;0.37;100.00;96719.00;5028438;28;105459;-64
2022/03/11 00:29:55;;;;;;;11.97;8.43;;;;;;;0.41;100.00;96715.03;5027839;28;105639;-64
2022/03/11 00:32:22;;;;;;;10.97;8.47;;;;;;;0.46;100.00;96715.31;5029140;27;101967;-64
2022/03/11 00:34:49;;;;;;;11.43;7.83;;;;;;;0.45;100.00;96711.06;5028615;28;105472;-64
2022/03/11 00:37:18;;;;;;;11.07;8.33;;;;;;;0.44;100.00;96708.63;5029051;27;105588;-64
2022/03/11 00:39:46;;;;;;;12.00;7.90;;;;;;;0.25;100.00;96709.97;5035180;28;102251;-64
2022/03/11 00:42:13;;;;;;;12.63;7.87;;;;;;;0.26;100.00;96713.38;5031354;28;105896;-64
2022/03/11 00:44:41;;;;;;;11.30;8.03;;;;;;;0.27;100.00;96713.22;5032019;28;101878;-64
2022/03/11 00:47:09;;;;;;;12.13;7.70;;;;;;;0.14;100.00;96712.19;5031746;28;105730;-64
2022/03/11 00:49:37;;;;;;;9.97;7.00;;;;;;;-0.01;100.00;96709.56;5031122;28;105753;-64
2022/03/11 00:52:05;;;;;;;9.47;6.93;;;;;;;0.02;100.00;96711.81;5031795;28;101785;-64
2022/03/11 00:54:34;;;;;;;8.70;6.83;;;;;;;-0.05;100.00;96712.72;5031900;28;105466;-64
2022/03/11 00:57:01;;;;;;;9.37;7.20;;;;;;;-0.13;100.00;96711.97;5031133;28;104299;-64
2022/03/11 00:59:28;;;;;;;11.13;7.53;;;;;;;-0.33;100.00;96708.22;5031855;28;101841;-64
2022/03/11 01:01:55;;;;;;;9.23;6.70;;;;;;;-0.23;100.00;96711.41;5034297;28;104199;-64
2022/03/11 01:04:23;;;;;;;10.13;6.83;;;;;;;-0.22;100.00;96700.75;5031500;28;101839;-64
2022/03/11 01:06:50;;;;;;;9.63;6.83;;;;;;;-0.23;100.00;96701.75;5031668;28;105406;-64
2022/03/11 01:09:18;;;;;;;8.13;6.00;;;;;;;-0.46;100.00;96700.97;5030843;28;105089;-64
2022/03/11 01:11:53;;;;;;;9.03;6.63;;;;;;;-0.43;100.00;96696.19;5031643;28;102322;-64
2022/03/11 01:14:20;;;;;;;10.00;7.00;;;;;;;-0.53;100.00;96694.81;5031442;28;106392;-64
2022/03/11 01:16:47;;;;;;;9.83;6.63;;;;;;;-0.54;100.00;96701.03;5030520;28;105604;-64
2022/03/11 01:19:15;;;;;;;8.07;6.07;;;;;;;-0.53;100.00;96697.44;5031440;28;101911;-64
2022/03/11 01:21:42;;;;;;;8.27;6.23;;;;;;;-0.60;100.00;96693.88;5034261;28;105708;-64
2022/03/11 01:24:10;;;;;;;10.30;6.60;;;;;;;-0.58;100.00;96689.31;5031229;28;102023;-64
2022/03/11 01:26:37;;;;;;;8.93;6.43;;;;;;;-0.51;100.00;96690.22;5031313;28;105373;-64
2022/03/11 01:29:07;;;;;;;8.10;5.97;;;;;;;-0.45;100.00;96684.28;5030363;28;106413;-64
2022/03/11 01:31:34;;;;;;;8.23;6.67;;;;;;;-0.49;100.00;96688.25;5030690;28;101891;-64
2022/03/11 01:34:01;;;;;;;10.77;6.80;;;;;;;-0.49;100.00;96687.44;5029989;28;105373;-64
2022/03/11 01:36:29;;;;;;;8.40;5.77;;;;;;;-0.63;100.00;96688.19;5029609;28;105632;-64
2022/03/11 01:38:56;;;;;;;11.13;6.30;;;;;;;-0.69;100.00;96686.28;5030040;28;101826;-64
2022/03/11 01:41:24;;;;;;;7.33;5.93;;;;;;;-0.90;100.00;96683.47;5029922;28;105821;-64
2022/03/11 01:43:54;;;;;;;7.90;5.90;;;;;;;-0.88;100.00;96687.53;5034355;28;103223;-64
2022/03/11 01:46:23;;;;;;;7.30;5.57;;;;;;;-0.72;100.00;96676.19;5030006;28;105281;-64
2022/03/11 01:48:50;;;;;;;8.60;6.07;;;;;;;-0.82;100.00;96675.59;5028673;27;105608;-64
2022/03/11 01:51:18;;;;;;;7.67;5.77;;;;;;;-0.70;100.00;96674.19;5029682;28;101958;-64
2022/03/11 01:53:46;;;;;;;8.27;5.80;;;;;;;-0.69;100.00;96671.44;5029692;28;104575;-64
2022/03/11 01:56:15;;;;;;;10.53;5.40;;;;;;;-0.66;100.00;96676.28;5029208;28;105627;-64
2022/03/11 01:58:43;;;;;;;8.97;5.50;;;;;;;-0.89;100.00;96672.06;5029718;28;101902;-64
2022/03/11 02:01:10;;;;;;;8.63;5.37;;;;;;;-0.82;100.00;96676.41;5029149;28;105306;-64
2022/03/11 02:03:39;;;;;;;7.50;5.50;;;;;;;-0.73;100.00;96675.38;5028960;28;104193;-64
2022/03/11 02:06:09;;;;;;;9.83;5.60;;;;;;;-0.70;100.00;96669.81;5032982;28;101853;-64
2022/03/11 02:08:37;;;;;;;7.27;5.60;;;;;;;-0.74;100.00;96671.13;5028693;28;105794;-64
2022/03/11 02:11:05;;;;;;;7.17;5.13;;;;;;;-0.68;100.00;96672.22;5029458;28;101842;-64
2022/03/11 02:13:43;;;;;;;7.10;5.23;;;;;;;-0.64;100.00;96666.50;5029221;28;104078;-64
2022/03/11 02:16:13;;;;;;;8.20;5.73;;;;;;;-0.73;100.00;96672.75;5028840;28;105772;-64
2022/03/11 02:18:42;;;;;;;10.20;5.97;;;;;;;-0.73;100.00;96669.34;5029299;28;102091;-64
2022/03/11 02:21:10;;;;;;;6.97;5.13;;;;;;;-0.76;100.00;96670.50;5029020;28;105249;-64
2022/03/11 02:23:50;;;;;;;7.60;5.37;;;;;;;-0.77;100.00;96671.47;5028477;28;105588;-64
2022/03/11 02:26:21;;;;;;;6.40;4.93;;;;;;;-0.81;100.00;96678.03;5029329;28;102074;-64
2022/03/11 02:28:51;;;;;;;6.73;5.33;;;;;;;-0.82;100.00;96673.00;5031805;28;105453;-64
2022/03/11 02:31:19;;;;;;;7.40;5.17;;;;;;;-0.82;100.00;96681.63;4978969;28;1403708;-64
2022/03/11 02:33:47;;;;;;;9.00;5.73;;;;;;;-0.99;100.00;96677.47;5030292;28;105488;-64
2022/03/11 02:36:15;;;;;;;8.60;5.60;;;;;;;-1.00;100.00;96677.69;5029720;28;104190;-64
2022/03/11 02:38:43;;;;;;;6.03;5.03;;;;;;;-0.98;100.00;96676.53;5030123;28;101848;-64
2022/03/11 02:41:11;;;;;;;8.00;5.53;;;;;;;-0.99;100.00;96669.66;5030184;28;104169;-64
2022/03/11 02:43:41;;;;;;;6.93;5.33;;;;;;;-1.09;100.00;96670.88;5029464;28;104084;-64
2022/03/11 02:46:09;;;;;;;6.73;5.40;;;;;;;-1.17;100.00;96666.50;5030396;28;102173;-64
2022/03/11 02:48:36;;;;;;;7.27;5.63;;;;;;;-1.26;100.00;96666.72;5030063;28;105473;-64
2022/03/11 02:51:04;;;;;;;6.60;4.67;;;;;;;-1.19;100.00;96662.44;5032890;28;105445;-64
2022/03/11 02:53:32;;;;;;;7.40;5.57;;;;;;;-1.35;100.00;96660.72;5029845;28;105256;-64
2022/03/11 02:55:59;;;;;;;9.00;5.57;;;;;;;-1.18;100.00;96651.84;5029350;28;105695;-64
2022/03/11 02:58:30;;;;;;;7.27;5.50;;;;;;;-1.23;100.00;96653.31;5029808;28;101960;-64
2022/03/11 03:00:57;;;;;;;7.87;5.00;;;;;;;-1.33;100.00;96655.31;5029013;27;105671;-64
2022/03/11 03:03:24;;;;;;;7.97;5.50;;;;;;;-1.34;100.00;96653.69;5029165;28;105825;-64
2022/03/11 03:05:51;;;;;;;8.67;5.00;;;;;;;-1.45;100.00;96656.69;5029619;28;101818;-64
2022/03/11 03:08:19;;;;;;;9.47;5.00;;;;;;;-1.57;100.00;96653.66;5029808;28;105594;-64
2022/03/11 03:10:46;;;;;;;13.53;5.30;;;;;;;-1.40;100.00;96655.22;5028899;28;105286;-64
2022/03/11 03:13:14;;;;;;;7.17;5.80;;;;;;;-1.42;100.00;96651.94;5033130;28;101869;-64
2022/03/11 03:15:43;;;;;;;6.03;4.60;;;;;;;-1.36;100.00;96653.91;5028986;28;105601;-64
2022/03/11 03:18:11;;;;;;;7.60;5.17;;;;;;;-1.58;100.00;96653.81;5029319;28;101918;-64
2022/03/11 03:20:38;;;;;;;8.40;5.00;;;;;;;-1.64;100.00;96647.47;5029445;28;105594;-64
2022/03/11 03:23:05;;;;;;;8.13;5.83;;;;;;;-1.63;100.00;96651.72;5029006;28;105543;-64
2022/03/11 03:25:34;;;;;;;9.13;5.57;;;;;;;-1.82;100.00;96646.91;5029632;28;102046;-64
2022/03/11 03:28:01;;;;;;;8.40;5.13;;;;;;;-1.66;100.00;96643.41;5029402;28;105206;-64
2022/03/11 03:30:28;;;;;;;8.20;5.33;;;;;;;-1.72;100.00;96642.31;5028790;28;104106;-64
2022/03/11 03:32:58;;;;;;;7.50;4.90;;;;;;;-1.80;100.00;96644.91;5032178;28;101981;-64
2022/03/11 03:35:25;;;;;;;9.33;5.53;;;;;;;-1.80;100.00;96637.09;5028643;28;105497;-64
2022/03/11 03:37:52;;;;;;;7.37;5.33;;;;;;;-1.79;100.00;96636.16;5029290;28;102235;-64
2022/03/11 03:40:19;;;;;;;6.40;4.90;;;;;;;-1.76;100.00;96638.41;5029499;28;105541;-64
2022/03/11 03:42:48;;;;;;;7.47;5.40;;;;;;;-1.85;100.00;96634.22;5028601;28;105752;-64
2022/03/11 03:45:15;;;;;;;6.27;4.83;;;;;;;-1.96;100.00;96631.97;5028988;28;101960;-64
2022/03/11 03:47:43;;;;;;;8.17;5.57;;;;;;;-1.85;100.00;96625.56;5028905;28;104390;-64
2022/03/11 03:50:13;;;;;;;7.57;5.10;;;;;;;-1.82;100.00;96628.66;5028439;28;105309;-64
2022/03/11 03:52:40;;;;;;;8.33;5.37;;;;;;;-1.93;100.00;96634.22;5029140;28;101883;-64
2022/03/11 03:55:11;;;;;;;8.20;5.60;;;;;;;-2.02;100.00;96632.63;5031941;28;105803;-64
2022/03/11 03:57:38;;;;;;;7.03;5.40;;;;;;;-1.96;100.00;96631.97;5028931;28;101798;-64
2022/03/11 04:00:07;;;;;;;9.27;5.80;;;;;;;-2.02;100.00;96635.22;5029180;28;104971;-64
2022/03/11 04:02:46;;;;;;;7.17;5.40;;;;;;;-2.00;100.00;96635.06;5029414;27;102571;-64
2022/03/11 04:05:16;;;;;;;8.20;5.53;;;;;;;-1.98;100.00;96639.13;5028922;28;101862;-64
2022/03/11 04:07:43;;;;;;;8.60;5.63;;;;;;;-1.85;100.00;96636.81;5029191;28;105335;-64
2022/03/11 04:10:11;;;;;;;8.37;5.60;;;;;;;-1.83;100.00;96634.03;5028127;28;105656;-64
2022/03/11 04:12:39;;;;;;;7.37;5.70;;;;;;;-1.86;100.00;96627.34;5028149;28;101909;-64
2022/03/11 04:15:08;;;;;;;9.80;5.83;;;;;;;-1.78;100.00;96629.94;5028839;28;105338;-64
2022/03/11 04:17:35;;;;;;;8.63;5.70;;;;;;;-1.77;100.00;96631.56;5032749;27;102806;-64
2022/03/11 04:20:03;;;;;;;11.60;6.00;;;;;;;-1.74;100.00;96630.41;5028669;28;105491;-64
2022/03/11 04:22:32;;;;;;;10.20;5.87;;;;;;;-1.77;100.00;96626.34;5027753;28;105296;-64
2022/03/11 04:24:59;;;;;;;8.03;5.87;;;;;;;-1.75;100.00;96626.19;5028735;28;102167;-64
2022/03/11 04:27:26;;;;;;;7.57;5.70;;;;;;;-1.81;100.00;96625.06;5028655;28;105234;-64
2022/03/11 04:29:54;;;;;;;7.67;5.73;;;;;;;-1.88;100.00;96633.72;5027970;28;105898;-64
2022/03/11 04:32:24;;;;;;;9.30;6.43;;;;;;;-1.95;100.00;96625.78;5027582;28;101992;-64
2022/03/11 04:34:51;;;;;;;6.40;5.33;;;;;;;-1.87;100.00;96620.53;5028341;28;105266;-64
2022/03/11 04:37:18;;;;;;;11.60;6.57;;;;;;;-1.87;100.00;96630.94;5027967;28;105619;-64
2022/03/11 04:39:47;;;;;;;9.53;5.73;;;;;;;-2.06;100.00;96625.31;5031954;28;102295;-64
2022/03/11 04:42:15;;;;;;;6.87;5.50;;;;;;;-2.12;100.00;96628.59;5027598;28;105712;-64
2022/03/11 04:44:42;;;;;;;9.93;6.47;;;;;;;-2.13;100.00;96625.16;5027736;28;101970;-64
2022/03/11 04:47:10;;;;;;;7.77;6.00;;;;;;;-2.07;100.00;96624.47;5027376;28;105185;-64
2022/03/11 04:49:38;;;;;;;7.73;6.07;;;;;;;-2.12;100.00;96631.19;5027256;28;105691;-64
2022/03/11 04:52:06;;;;;;;8.63;5.90;;;;;;;-2.08;100.00;96632.50;5028109;28;101872;-64
2022/03/11 04:54:33;;;;;;;8.33;5.50;;;;;;;-2.05;100.00;96626.94;5029277;28;102530;-64
2022/03/11 04:57:03;;;;;;;7.33;5.83;;;;;;;-2.05;100.00;96627.75;5029094;27;102831;-64
2022/03/11 04:59:30;;;;;;;8.93;6.10;;;;;;;-2.09;100.00;96621.25;5029429;27;102011;-64
2022/03/11 05:01:58;;;;;;;7.80;6.00;;;;;;;-2.10;100.00;96624.84;5030866;28;105133;-64
2022/03/11 05:04:25;;;;;;;8.80;5.77;;;;;;;-2.10;100.00;96619.63;5028023;28;101963;-64
2022/03/11 05:06:53;;;;;;;8.67;6.33;;;;;;;-2.22;100.00;96618.34;5027865;28;105537;-64
2022/03/11 05:09:20;;;;;;;9.93;6.13;;;;;;;-2.35;100.00;96620.63;5027209;28;105728;-64
2022/03/11 05:11:47;;;;;;;10.37;6.77;;;;;;;-2.27;100.00;96619.81;5028070;28;102031;-64
2022/03/11 05:14:17;;;;;;;9.67;6.60;;;;;;;-2.35;100.00;96617.25;5028073;28;104216;-64
2022/03/11 05:16:44;;;;;;;8.73;6.50;;;;;;;-2.53;100.00;96612.22;5026809;28;105273;-64
2022/03/11 05:19:11;;;;;;;10.80;6.20;;;;;;;-2.42;100.00;96605.84;5028061;28;101979;-64
2022/03/11 05:21:38;;;;;;;13.23;6.20;;;;;;;-2.48;100.00;96609.94;5028003;28;105522;-64
2022/03/11 05:24:06;;;;;;;7.53;5.77;;;;;;;-2.28;100.00;96606.00;5032964;27;101746;-64
2022/03/11 05:26:33;;;;;;;9.10;6.10;;;;;;;-2.29;100.00;96604.34;5031401;28;105443;-64
2022/03/11 05:29:01;;;;;;;7.63;6.47;;;;;;;-2.35;100.00;96605.03;5030670;28;104389;-64
2022/03/11 05:31:30;;;;;;;8.87;6.23;;;;;;;-2.50;100.00;96606.69;5030740;28;102016;-64
2022/03/11 05:33:57;;;;;;;8.27;6.27;;;;;;;-2.37;100.00;96608.75;5031462;28;105565;-64
2022/03/11 05:36:25;;;;;;;9.87;5.63;;;;;;;-2.34;100.00;96617.09;5030441;28;105188;-64
2022/03/11 05:38:52;;;;;;;8.97;6.47;;;;;;;-2.33;100.00;96621.31;5031116;28;102192;-64
2022/03/11 05:41:21;;;;;;;9.87;6.17;;;;;;;-2.37;100.00;96619.19;5031161;28;105310;-64
2022/03/11 05:43:48;;;;;;;14.30;6.60;;;;;;;-2.28;100.00;96618.19;5033969;28;104735;-64
2022/03/11 05:46:15;;;;;;;9.37;6.63;;;;;;;-2.37;100.00;96606.97;5030751;28;105798;-64
2022/03/11 05:48:46;;;;;;;10.83;6.70;;;;;;;-2.32;100.00;96615.13;5030186;28;105669;-64
2022/03/11 05:51:14;;;;;;;10.80;6.80;;;;;;;-2.38;100.00;96618.38;5030204;28;101882;-64
2022/03/11 05:53:40;;;;;;;10.43;7.00;;;;;;;-2.37;100.00;96625.22;5030781;28;105524;-64
2022/03/11 05:56:08;;;;;;;9.13;6.63;;;;;;;-2.36;100.00;96626.84;5030054;28;104268;-64
2022/03/11 05:58:36;;;;;;;11.77;5.90;;;;;;;-2.17;100.00;96623.88;5030548;28;101960;-64
2022/03/11 06:01:03;;;;;;;9.40;6.93;;;;;;;-2.08;100.00;96627.28;5027868;28;105776;-64
2022/03/11 06:03:31;;;;;;;7.93;5.77;;;;;;;-1.98;100.00;96628.69;5029842;28;105811;-64
2022/03/11 06:06:00;;;;;;;11.90;6.27;;;;;;;-1.85;100.00;96617.75;5035394;27;101852;-64
2022/03/11 06:08:28;;;;;;;10.20;6.60;;;;;;;-1.77;100.00;96621.16;5029822;28;105820;-64
2022/03/11 06:10:56;;;;;;;9.93;6.97;;;;;;;-1.75;100.00;96619.16;5030434;28;102251;-64
2022/03/11 06:13:24;;;;;;;10.97;6.50;;;;;;;-1.76;100.00;96614.94;5030554;28;105728;-64
2022/03/11 06:15:52;;;;;;;9.33;6.80;;;;;;;-1.65;100.00;96626.81;5029945;28;105365;-64
2022/03/11 06:18:20;;;;;;;8.67;6.30;;;;;;;-1.54;100.00;96622.00;5030200;28;101871;-64
2022/03/11 06:20:47;;;;;;;9.43;6.90;;;;;;;-1.46;100.00;96624.59;5032121;28;102546;-64
2022/03/11 06:23:16;;;;;;;12.33;7.23;;;;;;;-1.63;100.00;96623.06;5029737;28;105734;-64
2022/03/11 06:25:44;;;;;;;10.33;6.47;;;;;;;-1.37;100.00;96634.00;5030327;28;101888;-64
2022/03/11 06:28:11;;;;;;;10.63;7.20;;;;;;;-1.20;100.00;96635.53;5033190;28;105394;-64
2022/03/11 06:30:39;;;;;;;11.00;6.83;;;;;;;-1.06;100.00;96639.19;5030099;28;101791;-64
2022/03/11 06:33:09;;;;;;;9.23;6.57;;;;;;;-1.05;100.00;96638.22;5029948;28;105151;-64
2022/03/11 06:35:36;;;;;;;12.40;7.07;;;;;;;-0.96;100.00;96627.56;5028508;27;106162;-64
2022/03/11 06:38:03;;;;;;;11.03;7.00;;;;;;;-0.91;100.00;96643.53;5031215;27;101812;-64
2022/03/11 06:40:33;;;;;;;8.70;6.50;;;;;;;-0.71;100.00;96643.88;5029858;28;104081;-64
2022/03/11 06:43:00;;;;;;;10.70;7.53;;;;;;;-0.51;100.00;96647.63;5029443;28;105841;-64
2022/03/11 06:45:27;;;;;;;11.80;6.90;;;;;;;-0.62;100.00;96641.00;5029464;28;101827;-64
2022/03/11 06:47:56;;;;;;;9.53;6.57;;;;;;;-0.57;100.00;96649.13;5029222;28;105600;-64
2022/03/11 06:50:23;;;;;;;12.70;7.57;;;;;;;-0.42;100.00;96647.38;5033163;28;105858;-64
2022/03/11 06:52:50;;;;;;;9.03;6.63;;;;;;;-0.31;100.00;96645.13;5029765;28;105427;-64
2022/03/11 06:55:20;;;;;;;10.20;7.00;;;;;;;-0.34;100.00;96649.91;5029123;28;105589;-64
2022/03/11 06:57:49;;;;;;;8.23;6.43;;;;;;;-0.32;100.00;96653.97;5029761;28;101936;-64
2022/03/11 07:00:18;;;;;;;9.57;6.93;;;;;;;-0.12;100.00;96638.59;5029200;28;104165;-63
2022/03/11 07:02:47;;;;;;;11.70;6.70;;;;;;;-0.01;100.00;96648.63;5027847;28;105717;-64
2022/03/11 07:05:14;;;;;;;9.67;6.73;;;;;;;-0.08;100.00;96655.56;5030018;28;102401;-63
2022/03/11 07:07:42;;;;;;;10.00;7.30;;;;;;;0.10;100.00;96661.25;5029865;28;105556;-64
2022/03/11 07:10:12;;;;;;;9.30;7.13;;;;;;;0.15;100.00;96666.75;5029377;28;104523;-64
2022/03/11 07:13:08;;;;;;;12.07;7.60;;;;;;;0.42;100.00;96663.50;5032498;28;101987;-64
2022/03/11 07:15:35;;;;;;;8.33;6.20;;;;;;;0.51;100.00;96665.06;5029119;28;105392;-64
2022/03/11 07:18:03;;;;;;;9.70;6.77;;;;;;;0.46;100.00;96663.00;5029864;28;101947;-64
2022/03/11 07:20:30;;;;;;;10.70;7.27;;;;;;;0.52;100.00;96664.88;5029577;28;105231;-64
2022/03/11 07:22:57;;;;;;;11.07;6.87;;;;;;;0.69;100.00;96668.94;5029047;28;105740;-64
2022/03/11 07:25:25;;;;;;;11.37;8.03;;;;;;;0.86;100.00;96675.56;5029791;28;101899;-64
2022/03/11 07:28:01;;;;;;;9.97;7.00;;;;;;;1.00;100.00;96671.31;5030597;27;102910;-64
2022/03/11 07:30:30;;;;;;;11.13;7.77;;;;;;;1.19;100.00;96678.56;5029165;28;105943;-64
2022/03/11 07:32:57;;;;;;;11.40;7.50;;;;;;;1.21;99.72;96679.19;5032260;28;102058;-64
2022/03/11 07:35:25;;;;;;;10.63;7.90;;;;;;;1.24;99.94;96681.44;5029054;28;105622;-64
2022/03/11 07:37:58;;;;;;;10.80;7.17;;;;;;;1.54;100.00;96677.72;5029536;28;101841;-64
2022/03/11 07:40:25;;;;;;;11.30;7.93;;;;;;;1.66;98.22;96673.59;5029509;28;105515;-64
2022/03/11 07:42:54;;;;;;;9.77;7.23;;;;;;;1.66;94.79;96666.56;5028419;28;105495;-64
2022/03/11 07:45:22;;;;;;;12.23;7.80;;;;;;;1.33;95.02;96669.84;5029201;28;101874;-64
2022/03/11 07:48:08;;;;;;;12.57;7.60;;;;;;;1.46;98.61;96686.50;5028866;28;105539;-64
2022/03/11 07:50:36;;;;;;;12.67;7.70;;;;;;;1.72;97.52;96675.47;5028537;28;104028;-64
2022/03/11 07:53:04;;;;;;;13.07;8.77;;;;;;;1.98;97.48;96680.94;5029296;28;102263;-64
2022/03/11 07:55:32;;;;;;;10.13;7.40;;;;;;;1.95;94.64;96681.28;5032049;28;105624;-64
2022/03/11 07:58:09;;;;;;;14.50;7.63;;;;;;;2.14;93.48;96675.41;5029253;28;101922;-64
2022/03/11 08:00:39;;;;;;;9.13;7.20;;;;;;;2.41;93.38;96672.75;5028721;28;105372;-64
2022/03/11 08:03:09;;;;;;;10.37;7.10;;;;;;;2.46;88.10;96674.81;5014463;28;102979;-64
2022/03/11 08:05:36;;;;;;;10.00;7.83;;;;;;;2.56;92.03;96670.03;5028987;28;101868;-64
2022/03/11 08:08:29;;;;;;;9.33;7.33;;;;;;;2.46;87.46;96674.81;5029384;28;105724;-64
2022/03/11 08:11:13;;;;;;;13.80;7.77;;;;;;;2.86;89.63;96671.38;5028351;28;105491;-64
2022/03/11 08:13:41;;;;;;;10.90;7.33;;;;;;;2.92;85.27;96675.84;5028730;28;102209;-64
2022/03/11 08:16:08;;;;;;;11.53;7.50;;;;;;;2.92;84.73;96678.47;5028290;28;105566;-64
2022/03/11 08:19:29;;;;;;;9.80;7.30;;;;;;;2.93;83.10;96673.03;5031907;28;105336;-64
2022/03/11 08:21:58;;;;;;;10.13;7.13;;;;;;;3.19;83.34;96672.31;5028648;28;105534;-64
2022/03/11 08:24:26;;;;;;;10.83;7.70;;;;;;;3.47;83.88;96665.09;5028080;28;105645;-64
2022/03/11 08:26:54;;;;;;;12.13;7.70;;;;;;;3.60;81.23;96659.88;5028953;28;101926;-64
2022/03/11 08:29:32;;;;;;;12.53;8.20;;;;;;;3.95;78.96;96662.13;5063009;27;105228;-64
2022/03/11 08:32:01;;;;;;;12.23;8.00;;;;;;;4.05;76.88;96667.75;5060170;27;105751;-64
2022/03/11 08:34:29;;;;;;;9.93;7.60;;;;;;;4.24;73.76;96659.06;5047455;27;102014;-64
2022/03/11 08:36:56;;;;;;;13.30;7.93;;;;;;;3.76;71.32;96664.75;5042938;27;105221;-64
2022/03/11 08:39:25;;;;;;;11.20;8.10;;;;;;;4.13;75.20;96657.03;5008169;28;105489;-64
2022/03/11 08:42:38;;;;;;;10.20;7.83;;;;;;;4.33;70.93;96655.22;5023412;28;101876;-64
2022/03/11 08:45:07;;;;;;;9.17;7.17;;;;;;;4.41;70.03;96643.63;5027462;28;105847;-62
2022/03/11 08:47:35;;;;;;;11.50;7.43;;;;;;;4.68;71.07;96646.00;5029562;27;101843;-63
2022/03/11 08:50:03;;;;;;;13.17;8.13;;;;;;;4.65;70.42;96645.63;5027975;28;106060;-63
2022/03/11 08:52:30;;;;;;;9.27;7.73;;;;;;;4.68;68.30;96645.19;5027851;28;105890;-64
2022/03/11 08:54:59;;;;;;;9.17;7.47;;;;;;;4.83;66.91;96645.75;5028233;28;102212;-64
2022/03/11 08:57:26;;;;;;;9.40;7.67;;;;;;;4.94;66.60;96637.19;5029783;27;102584;-64
2022/03/11 08:59:54;;;;;;;13.43;8.07;;;;;;;5.28;64.04;96647.38;5030630;28;104261;-65
2022/03/11 09:02:22;;;;;;;8.77;7.50;;;;;;;5.16;63.70;96643.78;5031479;28;101872;-65
2022/03/11 09:04:50;;;;;;;8.67;7.47;;;;;;;5.19;63.74;96640.75;5036453;27;102816;-65
2022/03/11 09:07:18;;;;;;;9.77;7.27;;;;;;;5.34;63.11;96638.63;5049709;27;101916;-64
2022/03/11 09:09:52;;;;;;;9.93;7.47;;;;;;;5.19;63.96;96638.09;5049227;27;104494;-64
2022/03/11 09:12:24;;;;;;;8.97;7.57;;;;;;;5.16;62.53;96638.50;5031269;28;105947;-64
2022/03/11 09:14:51;;;;;;;9.63;7.40;;;;;;;4.94;64.24;96626.66;5032926;28;101724;-65
2022/03/11 09:20:12;;;;;;;;;;;;;;;;;;;;;
2022/03/11 09:30:54;;;;;;;10.83;8.73;;;;;;;6.19;60.89;96617.72;5092501;27;101561;-65
2022/03/11 09:33:22;;;;;;;10.37;7.87;;;;;;;6.39;59.65;96619.13;5086294;27;105630;-65
2022/03/11 09:35:50;;;;;;;9.23;7.80;;;;;;;6.28;56.64;96606.66;5086743;27;101895;-64
2022/03/11 09:53:12;;;;;;;9.33;8.17;;;;;;;7.46;53.18;96601.56;5050940;27;101987;-66
2022/03/11 09:55:40;;;;;;;8.67;7.50;;;;;;;7.47;54.09;96605.81;5079115;27;105605;-66
2022/03/11 09:58:07;;;;;;;8.57;7.20;;;;;;;7.83;53.05;96610.97;5045738;27;102370;-64
2022/03/11 10:00:36;;;;;;;8.87;7.10;;;;;;;8.16;51.20;96610.44;5045849;27;105372;-64
2022/03/11 10:03:04;;;;;;;8.60;7.40;;;;;;;8.23;50.78;96606.66;5045158;27;106504;-65
2022/03/11 10:05:46;;;;;;;9.23;7.60;;;;;;;8.23;51.00;96606.66;5045492;27;103081;-64
2022/03/11 10:08:30;;;;;;;11.87;7.63;;;;;;;8.37;50.18;96609.88;5079834;27;105577;-65
2022/03/11 10:11:19;;;;;;;11.13;7.00;;;;;;;8.56;49.83;96598.94;5079069;27;104537;-64
2022/03/11 10:13:50;;;;;;;9.13;7.40;;;;;;;8.70;48.51;96595.00;5048692;27;102180;-64
2022/03/11 10:16:20;;;;;;;7.90;6.63;;;;;;;9.00;47.27;96595.59;5079010;27;105006;-64
2022/03/11 10:18:58;;;;;;;11.20;7.43;;;;;;;8.51;49.79;96588.22;5045371;27;101939;-65
2022/03/11 10:21:47;;;;;;;11.27;7.77;;;;;;;8.81;49.55;96583.56;5045210;27;105573;-65
2022/03/11 10:24:18;;;;;;;10.20;7.67;;;;;;;9.11;48.35;96583.38;5044575;27;105519;-64
2022/03/11 10:26:47;;;;;;;12.47;8.17;;;;;;;9.14;47.28;96590.84;5045178;27;101844;-64
2022/03/11 10:29:16;;;;;;;11.17;7.57;;;;;;;9.52;46.86;96585.72;5045326;27;103924;-64
2022/03/11 10:32:07;;;;;;;9.80;7.60;;;;;;;9.96;46.59;96583.03;5044526;27;104179;-65
2022/03/11 10:34:36;;;;;;;8.97;7.20;;;;;;;9.75;45.09;96581.09;5044892;27;101979;-64
2022/03/11 10:37:06;;;;;;;10.67;7.20;;;;;;;10.02;44.58;96582.06;5047731;27;105793;-65
2022/03/11 10:39:43;;;;;;;10.50;8.17;;;;;;;9.95;44.82;96585.94;5045177;27;102071;-65
2022/03/11 10:42:18;;;;;;;8.50;7.07;;;;;;;9.98;43.35;96590.78;5046421;27;102624;-64
2022/03/11 10:45:08;;;;;;;8.60;7.03;;;;;;;9.75;43.76;96585.59;5043970;27;105506;-64
2022/03/11 10:47:42;;;;;;;9.83;7.80;;;;;;;9.78;45.86;96583.28;5034551;27;101834;-66
2022/03/11 10:50:22;;;;;;;8.07;7.27;;;;;;;10.13;44.11;96585.69;5024806;28;105208;-64
2022/03/11 10:52:50;;;;;;;8.23;7.17;;;;;;;10.12;43.11;96584.91;5041580;27;105908;-64
2022/03/11 10:55:22;;;;;;;8.00;7.17;;;;;;;10.39;43.49;96590.34;5031264;28;101835;-64
2022/03/11 10:57:53;;;;;;;9.80;7.43;;;;;;;10.63;43.10;96586.47;5033052;27;102768;-64
2022/03/11 11:00:25;;;;;;;9.40;8.13;;;;;;;10.89;42.09;96583.06;5034629;27;105556;-64
2022/03/11 11:02:54;;;;;;;8.27;7.47;;;;;;;10.96;41.57;96584.47;5048036;27;105591;-64
2022/03/11 11:05:22;;;;;;;9.00;7.10;;;;;;;10.91;42.10;96580.97;5049499;27;105395;-64
2022/03/11 11:07:50;;;;;;;9.90;7.50;;;;;;;11.05;41.22;96584.84;5047202;27;102430;-64
2022/03/11 11:10:22;;;;;;;9.80;7.93;;;;;;;11.10;40.74;96579.59;5051286;27;105345;-64
2022/03/11 11:13:23;;;;;;;8.70;7.10;;;;;;;10.90;41.19;96580.16;5030761;27;105580;-65
2022/03/11 11:15:55;;;;;;;9.33;7.30;;;;;;;11.37;40.08;96572.44;5030916;28;101806;-66
2022/03/11 11:18:28;;;;;;;8.30;7.40;;;;;;;11.40;40.97;96559.44;5032752;27;102799;-64
2022/03/11 11:21:05;;;;;;;9.03;8.07;;;;;;;11.04;40.91;96568.09;5030508;28;105762;-63
2022/03/11 11:23:32;;;;;;;10.47;8.23;;;;;;;10.91;40.71;96565.78;5035741;27;101792;-63
2022/03/11 11:26:01;;;;;;;10.30;7.77;;;;;;;10.83;41.25;96557.44;5030356;28;105319;-63
2022/03/11 11:28:29;;;;;;;8.53;7.40;;;;;;;10.89;41.51;96551.13;5047916;27;102002;-63
2022/03/11 11:31:08;;;;;;;9.40;7.83;;;;;;;11.37;40.33;96545.81;5030897;28;105150;-63
2022/03/11 11:33:37;;;;;;;9.27;7.93;;;;;;;11.49;40.41;96543.81;5030165;28;105495;-63
2022/03/11 11:36:04;;;;;;;8.87;7.97;;;;;;;11.57;40.19;96543.38;5030921;28;101893;-63
2022/03/11 11:38:37;;;;;;;9.77;8.30;;;;;;;11.66;40.36;96536.56;5032038;27;102612;-63
2022/03/11 11:41:24;;;;;;;10.33;8.57;;;;;;;11.73;39.33;96542.47;5030105;28;105746;-63
2022/03/11 11:43:59;;;;;;;10.03;7.93;;;;;;;11.85;39.72;96537.78;5030423;28;101884;-63
2022/03/11 11:46:27;;;;;;;11.43;7.97;;;;;;;12.00;39.35;96536.03;5033231;28;105551;-64
2022/03/11 11:49:07;;;;;;;10.37;8.17;;;;;;;12.19;40.08;96539.91;5030435;28;101919;-64
2022/03/11 11:52:04;;;;;;;8.87;7.93;;;;;;;12.32;38.57;96530.66;5029856;28;105472;-63
2022/03/11 11:54:42;;;;;;;14.77;7.90;;;;;;;12.63;38.13;96527.06;5031418;27;103565;-63
2022/03/11 11:57:22;;;;;;;9.87;8.37;;;;;;;12.54;37.61;96529.44;5030486;28;101814;-64
2022/03/11 11:59:59;;;;;;;11.47;8.20;;;;;;;12.44;37.33;96523.25;5041990;27;105847;-63